Forside
METAR-TAF:

METAR-TAF

Lufthavne :

Caldwell Industrial Airport

Caldwell, Idaho, USA

Breddekreds: 43-38N, længdekreds: 116-38W, højde: 740 m

Aktuelle vejr

Denne rapport blev lavet for 14 minutter siden, kl. 15:56 UTC
Vind 4 kt fra nord
Temperatur 11°C
Fugtighed 76%
Tryk 1016 hPa
Sigt: 16.1 km
Overskyet i en højde af 8500 ft

METAR: KEUL 231556Z AUTO 01004KT 10SM OVC085 11/07 A3001 RMK AO2 SLP158 T01110072

Tid: 10:10 (16:10 UTC)

Vejrudsigter

Denne rapport blev lavet for 4 timer og 41 minutter siden, kl. 11:29 UTC
Foreløbig gælder fra 23 på 12 UTC til 24 på 12 UTC
Vind 3 kt fra varierende retninger
Sigt: 10 km
Brudte skyer i en højde af 12000 ft
Fra 23 på 1900 UTC
Vind 5 kt fra varierende retninger
Sigt: 10 km
skyfri

TAF: KEUL 231129Z 2312/2412 VRB03KT P6SM BKN120 FM231900 VRB05KT P6SM SKC

Vejrobservationer og prognoser fra mere end 4000 lufthavne (METAR og TAF).

De gule og røde prikker repræsenterer de meteorologiske stationer.

Flyt musen over at se navnet på stationen.

Så klik over at se vejr observationer og prognoser.

At skifte det kort: Klik på de grønne knapper med et sort kors for at zoome ind; på den grønne knap med en bindestreg for at zoome ud; eller på de grønne pile for tilstødende kort.


METAR-TAF: